Time;durP1;ratioP1;P1;durP2;ratioP2;P2;SDS_P1;SDS_P2;PMS_P1;PMS_P2;Temp;Humidity;BMP_temperature;BMP_pressure;BME280_temperature;BME280_humidity;BME280_pressure;Samples;Min_cycle;Max_cycle;Signal;HPM_P1;HPM_P2
2023/04/07 00:00:25;;;;;;;8.00;1.52;;;6.80;99.90;;;;;;5090662;28;20052;-60
2023/04/07 00:02:52;;;;;;;6.43;1.30;;;6.90;99.90;;;;;;5090674;28;20054;-59
2023/04/07 00:05:19;;;;;;;4.75;1.83;;;6.80;99.90;;;;;;5091012;28;20048;-60
2023/04/07 00:07:46;;;;;;;9.05;1.23;;;6.80;99.90;;;;;;5090677;28;20131;-61
2023/04/07 00:10:22;;;;;;;5.57;1.95;;;6.70;99.90;;;;;;5090717;28;20089;-61
2023/04/07 00:12:49;;;;;;;8.88;2.50;;;6.70;99.90;;;;;;5089267;28;20734;-61
2023/04/07 00:15:15;;;;;;;7.57;1.73;;;6.70;99.90;;;;;;5090838;28;20139;-61
2023/04/07 00:17:42;;;;;;;9.45;1.30;;;6.70;99.90;;;;;;5089887;28;20411;-61
2023/04/07 00:20:10;;;;;;;6.07;1.25;;;6.60;99.90;;;;;;5100788;28;20051;-61
2023/04/07 00:22:37;;;;;;;9.48;1.83;;;6.60;99.90;;;;;;5089094;28;20270;-61
2023/04/07 00:25:04;;;;;;;4.93;1.70;;;6.60;99.90;;;;;;5089169;28;20047;-61
2023/04/07 00:27:31;;;;;;;5.03;1.45;;;6.60;99.90;;;;;;5089477;28;20680;-61
2023/04/07 00:29:57;;;;;;;8.38;1.98;;;6.50;99.90;;;;;;5090623;28;20066;-61
2023/04/07 00:32:25;;;;;;;12.43;1.85;;;6.50;99.90;;;;;;5089163;28;20459;-61
2023/04/07 00:34:52;;;;;;;11.57;2.08;;;6.50;99.90;;;;;;5072056;28;20078;-59
2023/04/07 00:37:19;;;;;;;8.43;2.20;;;6.50;99.90;;;;;;5089725;28;20052;-59
2023/04/07 00:39:46;;;;;;;7.75;2.08;;;6.30;99.90;;;;;;5089115;28;20072;-59
2023/04/07 00:42:12;;;;;;;6.78;3.05;;;6.50;99.90;;;;;;5089262;28;20126;-59
2023/04/07 00:44:39;;;;;;;6.68;2.05;;;6.50;99.90;;;;;;5089620;28;20090;-59
2023/04/07 00:47:06;;;;;;;7.40;2.30;;;6.60;99.90;;;;;;5089711;28;20095;-59
2023/04/07 00:49:33;;;;;;;5.13;1.85;;;6.40;99.90;;;;;;5089327;28;20134;-59
2023/04/07 00:52:00;;;;;;;6.72;2.40;;;6.40;99.90;;;;;;5098713;28;20048;-60
2023/04/07 00:54:27;;;;;;;5.82;2.08;;;6.40;99.90;;;;;;5089620;28;20040;-60
2023/04/07 00:56:54;;;;;;;7.50;2.38;;;6.30;99.90;;;;;;5088613;28;20336;-59
2023/04/07 00:59:21;;;;;;;6.05;2.30;;;6.30;99.90;;;;;;5089747;28;20357;-60
2023/04/07 01:01:58;;;;;;;7.80;2.28;;;6.30;99.90;;;;;;5088317;28;20048;-60
2023/04/07 01:04:46;;;;;;;9.85;1.88;;;6.30;99.90;;;;;;5089793;28;20687;-59
2023/04/07 01:07:34;;;;;;;6.88;2.35;;;6.20;99.90;;;;;;5099515;28;20044;-59
2023/04/07 01:10:02;;;;;;;4.15;1.75;;;6.10;99.90;;;;;;5071867;28;20524;-59
2023/04/07 01:12:51;;;;;;;7.25;1.77;;;6.00;99.90;;;;;;4735976;28;10000751;-58
2023/04/07 01:15:20;;;;;;;3.33;1.63;;;6.00;99.90;;;;;;5086168;28;20065;-58
2023/04/07 01:17:48;;;;;;;5.60;2.13;;;6.00;99.90;;;;;;5087659;28;20051;-60
2023/04/07 01:20:18;;;;;;;5.40;2.28;;;6.00;99.90;;;;;;5067859;28;20056;-60
2023/04/07 01:22:55;;;;;;;8.77;2.47;;;6.00;99.90;;;;;;5070514;28;20499;-60
2023/04/07 01:25:38;;;;;;;4.45;2.50;;;6.10;99.90;;;;;;5086396;28;20135;-61
2023/04/07 01:28:44;;;;;;;11.30;4.75;;;5.90;99.90;;;;;;5087822;28;20048;-60
2023/04/07 01:31:11;;;;;;;11.80;2.58;;;5.90;99.90;;;;;;5087352;28;20151;-60
2023/04/07 01:33:38;;;;;;;5.18;2.38;;;5.90;99.90;;;;;;5088607;28;20071;-60
2023/04/07 01:36:06;;;;;;;9.00;2.55;;;5.90;99.90;;;;;;5087878;28;20127;-60
2023/04/07 01:38:33;;;;;;;5.78;1.65;;;5.90;99.90;;;;;;5070634;28;20058;-60
2023/04/07 01:40:59;;;;;;;13.93;4.28;;;5.90;99.90;;;;;;5087895;28;20469;-60
2023/04/07 01:43:27;;;;;;;10.80;2.40;;;5.90;99.90;;;;;;5086136;28;20044;-60
2023/04/07 01:45:54;;;;;;;7.65;1.75;;;5.80;99.90;;;;;;5087514;28;20040;-64
2023/04/07 01:48:21;;;;;;;7.53;1.40;;;5.90;99.90;;;;;;5087290;28;20147;-60
2023/04/07 01:50:48;;;;;;;3.53;1.58;;;5.80;99.90;;;;;;5067034;28;20040;-60
2023/04/07 01:53:15;;;;;;;5.45;1.92;;;5.80;99.90;;;;;;5087263;28;20052;-59
2023/04/07 01:55:42;;;;;;;9.05;1.83;;;5.80;99.90;;;;;;5088421;28;20452;-60
2023/04/07 01:58:09;;;;;;;9.45;2.28;;;5.80;99.90;;;;;;5088725;28;20051;-59
2023/04/07 02:00:36;;;;;;;5.25;2.00;;;5.80;99.90;;;;;;5088167;28;20127;-61
2023/04/07 02:03:10;;;;;;;4.57;1.25;;;5.80;99.90;;;;;;5088567;28;20419;-60
2023/04/07 02:05:37;;;;;;;6.13;2.92;;;5.80;99.90;;;;;;5086926;28;20550;-60
2023/04/07 02:08:05;;;;;;;7.07;2.10;;;5.80;99.90;;;;;;5088590;28;20050;-60
2023/04/07 02:10:34;;;;;;;4.57;2.05;;;5.80;99.90;;;;;;5090632;28;20123;-61
2023/04/07 02:13:02;;;;;;;3.95;1.60;;;5.70;99.90;;;;;;5086628;28;20087;-61
2023/04/07 02:15:30;;;;;;;8.18;2.53;;;5.70;99.90;;;;;;5088099;28;20459;-60
2023/04/07 02:17:58;;;;;;;2.65;1.58;;;5.70;99.90;;;;;;5083251;28;20069;-61
2023/04/07 02:20:25;;;;;;;5.40;1.73;;;5.70;99.90;;;;;;5086947;28;20040;-61
2023/04/07 02:22:52;;;;;;;6.13;1.52;;;5.60;99.90;;;;;;5086661;28;20054;-61
2023/04/07 02:25:26;;;;;;;6.03;1.83;;;5.60;99.90;;;;;;5087938;28;20127;-61
2023/04/07 02:27:55;;;;;;;6.88;1.75;;;5.60;99.90;;;;;;5087917;28;20079;-59
2023/04/07 02:30:22;;;;;;;7.75;2.33;;;5.50;99.90;;;;;;5087910;28;20075;-60
2023/04/07 02:32:48;;;;;;;11.27;1.70;;;5.50;99.90;;;;;;5086733;28;20054;-60
2023/04/07 02:35:15;;;;;;;5.55;1.95;;;5.50;99.90;;;;;;5087738;28;20063;-61
2023/04/07 02:37:45;;;;;;;6.05;2.35;;;5.50;99.90;;;;;;5087353;28;20083;-60
2023/04/07 02:40:12;;;;;;;4.82;1.85;;;5.50;99.90;;;;;;5086652;28;20413;-60
2023/04/07 02:42:39;;;;;;;9.90;1.73;;;5.40;99.90;;;;;;5086632;28;20052;-60
2023/04/07 02:45:06;;;;;;;6.18;1.95;;;5.40;99.90;;;;;;5088065;28;20138;-60
2023/04/07 02:47:34;;;;;;;6.53;1.80;;;5.40;99.90;;;;;;5087172;28;20052;-60
2023/04/07 02:50:01;;;;;;;9.38;2.22;;;5.40;99.90;;;;;;5087809;28;20092;-60
2023/04/07 02:52:28;;;;;;;9.60;2.47;;;5.40;99.90;;;;;;5087072;28;20047;-60
2023/04/07 02:54:54;;;;;;;5.82;1.90;;;5.30;99.90;;;;;;5087788;28;20050;-60
2023/04/07 02:57:21;;;;;;;6.22;2.00;;;5.30;99.90;;;;;;5087408;28;20052;-60
2023/04/07 02:59:48;;;;;;;8.98;2.00;;;5.20;99.90;;;;;;5086804;28;20565;-59
2023/04/07 03:02:15;;;;;;;8.70;1.80;;;5.20;99.90;;;;;;5086500;28;20044;-59
2023/04/07 03:04:41;;;;;;;5.85;1.77;;;5.20;99.90;;;;;;5089689;28;20048;-59
2023/04/07 03:07:08;;;;;;;6.88;1.60;;;5.20;99.90;;;;;;5091495;28;20079;-59
2023/04/07 03:09:35;;;;;;;4.40;1.52;;;5.20;99.90;;;;;;5087197;28;20048;-59
2023/04/07 03:12:02;;;;;;;4.60;1.95;;;5.20;99.90;;;;;;5085999;28;20076;-59
2023/04/07 03:14:29;;;;;;;7.20;1.98;;;5.20;99.90;;;;;;5087057;28;20094;-60
2023/04/07 03:16:56;;;;;;;4.70;1.90;;;5.20;99.90;;;;;;5087288;28;20044;-61
2023/04/07 03:19:23;;;;;;;4.50;1.58;;;5.20;99.90;;;;;;5087139;28;20059;-61
2023/04/07 03:21:50;;;;;;;6.35;3.35;;;5.20;99.90;;;;;;5086318;28;20085;-62
2023/04/07 03:24:17;;;;;;;7.60;2.42;;;5.20;99.90;;;;;;5085940;28;20055;-60
2023/04/07 03:26:44;;;;;;;9.20;2.08;;;5.20;99.90;;;;;;5086786;28;20048;-60
2023/04/07 03:29:10;;;;;;;10.20;2.45;;;5.20;99.90;;;;;;5086019;28;20571;-60
2023/04/07 03:31:37;;;;;;;10.27;2.00;;;5.20;99.90;;;;;;5085972;28;20179;-60
2023/04/07 03:34:04;;;;;;;8.93;2.35;;;5.20;99.90;;;;;;5086268;28;20137;-60
2023/04/07 03:36:31;;;;;;;6.63;1.83;;;5.30;99.90;;;;;;5091649;28;20050;-60
2023/04/07 03:38:57;;;;;;;4.72;2.40;;;5.30;99.90;;;;;;5086703;28;20075;-60
2023/04/07 03:41:24;;;;;;;8.18;2.25;;;5.40;99.90;;;;;;5086595;28;20067;-60
2023/04/07 03:43:51;;;;;;;4.88;1.70;;;5.50;99.90;;;;;;5085390;28;20050;-60
2023/04/07 03:46:19;;;;;;;11.00;1.92;;;5.60;99.90;;;;;;5093882;28;20089;-60
2023/04/07 03:48:46;;;;;;;8.55;1.73;;;5.60;99.90;;;;;;5086550;28;20044;-61
2023/04/07 03:51:13;;;;;;;3.70;1.30;;;5.60;99.90;;;;;;5095656;28;20048;-61
2023/04/07 03:53:40;;;;;;;8.43;1.85;;;5.70;99.90;;;;;;5086815;28;20131;-62
2023/04/07 03:56:06;;;;;;;5.70;1.73;;;5.80;99.90;;;;;;5096371;28;20051;-61
2023/04/07 03:58:33;;;;;;;9.15;1.77;;;5.70;99.90;;;;;;5086387;28;20050;-60
2023/04/07 04:01:00;;;;;;;5.85;2.45;;;5.80;99.90;;;;;;5086221;28;20123;-61
2023/04/07 04:03:27;;;;;;;14.10;2.72;;;5.80;99.90;;;;;;5081091;28;20044;-61
2023/04/07 04:05:54;;;;;;;8.27;1.85;;;5.90;99.90;;;;;;5076403;28;20045;-61
2023/04/07 04:08:20;;;;;;;8.88;1.58;;;6.00;99.90;;;;;;5085119;28;20087;-61
2023/04/07 04:10:47;;;;;;;5.28;1.80;;;5.90;99.90;;;;;;5086389;28;20050;-61
2023/04/07 04:13:14;;;;;;;5.90;2.03;;;5.90;99.90;;;;;;5083693;28;20140;-61
2023/04/07 04:15:40;;;;;;;4.10;1.55;;;5.90;99.90;;;;;;5085516;28;20065;-60
2023/04/07 04:18:08;;;;;;;8.63;1.85;;;5.80;99.90;;;;;;5085473;28;20055;-61
2023/04/07 04:20:36;;;;;;;8.60;1.70;;;5.80;99.90;;;;;;5086469;28;20062;-60
2023/04/07 04:23:03;;;;;;;12.10;3.60;;;5.80;99.90;;;;;;5087067;28;20044;-61
2023/04/07 04:25:29;;;;;;;6.38;1.65;;;5.80;99.90;;;;;;5090326;28;20376;-60
2023/04/07 04:27:56;;;;;;;10.57;3.00;;;5.70;99.90;;;;;;5090026;28;20039;-61
2023/04/07 04:30:23;;;;;;;3.78;1.25;;;5.60;99.90;;;;;;5089023;28;20513;-60
2023/04/07 04:32:50;;;;;;;5.95;1.65;;;5.60;99.90;;;;;;5088924;28;20079;-60
2023/04/07 04:35:17;;;;;;;15.05;2.72;;;5.60;99.90;;;;;;5090229;28;20055;-59
2023/04/07 04:37:43;;;;;;;7.93;2.13;;;5.60;99.90;;;;;;5090634;28;20040;-59
2023/04/07 04:40:11;;;;;;;7.93;2.25;;;5.60;99.90;;;;;;5089697;28;20055;-60
2023/04/07 04:42:37;;;;;;;8.05;1.73;;;5.60;99.90;;;;;;5087019;28;20048;-59
2023/04/07 04:45:04;;;;;;;11.55;2.25;;;5.60;99.90;;;;;;5089715;28;20051;-59
2023/04/07 04:47:31;;;;;;;10.32;2.03;;;5.50;99.90;;;;;;5089969;28;20139;-60
2023/04/07 04:49:58;;;;;;;6.88;2.08;;;5.50;99.90;;;;;;5090218;28;20048;-60
2023/04/07 04:52:26;;;;;;;8.65;1.58;;;5.50;99.90;;;;;;5089308;28;20131;-59
2023/04/07 04:54:53;;;;;;;13.15;2.63;;;5.50;99.90;;;;;;5089055;28;20046;-59
2023/04/07 04:57:20;;;;;;;11.50;1.75;;;5.50;99.90;;;;;;5084226;28;20067;-60
2023/04/07 04:59:46;;;;;;;5.80;2.00;;;5.50;99.90;;;;;;5089124;28;20097;-59
2023/04/07 05:02:13;;;;;;;5.80;1.77;;;5.50;99.90;;;;;;5087936;28;20184;-61
2023/04/07 05:04:40;;;;;;;7.65;2.03;;;5.40;99.90;;;;;;5088859;28;20051;-61
2023/04/07 05:07:07;;;;;;;5.03;1.58;;;5.40;99.90;;;;;;5088746;28;20499;-61
2023/04/07 05:09:34;;;;;;;9.27;1.90;;;5.40;99.90;;;;;;5088809;28;20094;-61
2023/04/07 05:12:01;;;;;;;3.90;1.50;;;5.40;99.90;;;;;;5086679;28;20131;-61
2023/04/07 05:14:28;;;;;;;8.10;1.98;;;5.40;99.90;;;;;;5089042;28;20204;-60
2023/04/07 05:16:54;;;;;;;11.15;1.83;;;5.40;99.90;;;;;;5090283;28;20506;-61
2023/04/07 05:19:21;;;;;;;12.15;2.53;;;5.40;99.90;;;;;;5090934;28;20131;-61
2023/04/07 05:21:48;;;;;;;10.63;3.33;;;5.30;99.90;;;;;;5088927;28;20135;-60
2023/04/07 05:24:15;;;;;;;5.78;1.95;;;5.30;99.90;;;;;;5088562;28;20075;-60
2023/04/07 05:26:41;;;;;;;10.77;2.40;;;5.30;99.90;;;;;;5088689;28;20487;-60
2023/04/07 05:29:08;;;;;;;10.88;1.85;;;5.30;99.90;;;;;;5088472;28;20044;-60
2023/04/07 05:31:36;;;;;;;7.55;1.75;;;5.30;99.90;;;;;;5087657;28;20527;-60
2023/04/07 05:34:03;;;;;;;5.68;1.98;;;5.30;99.90;;;;;;5088017;28;20048;-63
2023/04/07 05:36:30;;;;;;;9.70;2.35;;;5.30;99.90;;;;;;5089000;28;20118;-61
2023/04/07 05:38:57;;;;;;;5.57;2.17;;;5.30;99.90;;;;;;5087651;28;20075;-59
2023/04/07 05:41:24;;;;;;;12.43;2.78;;;5.30;99.90;;;;;;5088335;28;20122;-59
2023/04/07 05:43:50;;;;;;;4.82;1.80;;;5.30;99.90;;;;;;5088173;28;20087;-60
2023/04/07 05:46:17;;;;;;;6.40;1.90;;;5.30;99.90;;;;;;5087391;28;20044;-60
2023/04/07 05:48:44;;;;;;;7.55;2.85;;;5.40;99.90;;;;;;5089298;28;20079;-60
2023/04/07 05:51:11;;;;;;;10.30;2.53;;;5.40;99.90;;;;;;5088773;28;20040;-60
2023/04/07 05:53:38;;;;;;;7.55;2.55;;;5.40;99.90;;;;;;5087618;28;20514;-60
2023/04/07 05:56:05;;;;;;;13.70;2.75;;;5.60;99.90;;;;;;5088968;28;20490;-63
2023/04/07 05:58:31;;;;;;;7.10;2.35;;;5.60;99.90;;;;;;5088045;28;20048;-60
2023/04/07 06:00:58;;;;;;;9.30;2.33;;;5.60;99.90;;;;;;5088387;28;20054;-60
2023/04/07 06:03:25;;;;;;;13.18;2.92;;;5.60;99.90;;;;;;5087314;28;20529;-61
2023/04/07 06:05:52;;;;;;;6.88;2.58;;;5.70;99.90;;;;;;5087816;28;20239;-60
2023/04/07 06:08:18;;;;;;;7.28;2.58;;;5.70;99.90;;;;;;5087765;28;20467;-60
2023/04/07 06:10:45;;;;;;;10.98;2.60;;;5.80;99.90;;;;;;5086994;28;20040;-61
2023/04/07 06:13:12;;;;;;;11.07;3.03;;;5.90;99.90;;;;;;5086466;28;20059;-60
2023/04/07 06:15:39;;;;;;;8.70;2.20;;;6.00;99.90;;;;;;5086400;28;20054;-60
2023/04/07 06:18:06;;;;;;;8.93;3.25;;;6.10;99.90;;;;;;5087153;28;20040;-61
2023/04/07 06:20:35;;;;;;;7.43;2.33;;;6.20;99.90;;;;;;5084120;28;20851;-60
2023/04/07 06:23:02;;;;;;;9.60;2.33;;;6.10;99.90;;;;;;5087292;28;20101;-59
2023/04/07 06:25:29;;;;;;;7.85;2.15;;;6.20;99.90;;;;;;5087736;28;20044;-60
2023/04/07 06:27:55;;;;;;;8.55;2.28;;;6.10;99.90;;;;;;5087049;28;20040;-62
2023/04/07 06:30:22;;;;;;;9.50;2.38;;;6.00;99.90;;;;;;5087603;28;20043;-62
2023/04/07 06:32:49;;;;;;;11.00;2.45;;;6.00;99.90;;;;;;5085685;28;20552;-60
2023/04/07 06:35:16;;;;;;;6.90;2.15;;;6.00;99.90;;;;;;5087871;28;20602;-61
2023/04/07 06:37:43;;;;;;;11.30;2.45;;;6.00;99.90;;;;;;5087309;28;20043;-61
2023/04/07 06:40:10;;;;;;;6.15;2.15;;;6.00;99.90;;;;;;5088078;28;20075;-61
2023/04/07 06:42:36;;;;;;;12.25;3.35;;;6.00;99.90;;;;;;5086275;28;20502;-61
2023/04/07 06:45:03;;;;;;;7.30;2.47;;;6.00;99.90;;;;;;5086860;28;20052;-60
2023/04/07 06:47:31;;;;;;;9.82;1.95;;;6.00;99.90;;;;;;5074949;28;20422;-61
2023/04/07 06:49:58;;;;;;;12.13;2.50;;;6.10;99.90;;;;;;5087515;28;20453;-59
2023/04/07 06:52:24;;;;;;;7.40;2.00;;;6.10;99.90;;;;;;5088153;28;20040;-61
2023/04/07 06:54:51;;;;;;;11.45;2.22;;;6.10;99.90;;;;;;5086497;28;20498;-61
2023/04/07 06:57:18;;;;;;;9.20;2.13;;;6.10;99.90;;;;;;5087327;28;20248;-61
2023/04/07 06:59:45;;;;;;;5.60;2.22;;;6.20;99.90;;;;;;5085897;28;20040;-60
2023/04/07 07:02:11;;;;;;;9.15;2.38;;;6.20;99.90;;;;;;5087678;28;20054;-60
2023/04/07 07:04:38;;;;;;;10.70;2.42;;;6.20;99.90;;;;;;5087058;28;20101;-60
2023/04/07 07:07:05;;;;;;;13.10;2.17;;;6.30;99.90;;;;;;5086849;28;20140;-60
2023/04/07 07:09:32;;;;;;;5.35;1.90;;;6.30;99.90;;;;;;5078142;28;20056;-61
2023/04/07 07:12:01;;;;;;;13.07;2.90;;;6.40;99.90;;;;;;5085362;28;20055;-60
2023/04/07 07:14:30;;;;;;;7.68;2.45;;;6.40;99.90;;;;;;5085709;28;20065;-60
2023/04/07 07:16:57;;;;;;;13.80;2.90;;;6.50;99.90;;;;;;5085955;28;20056;-61
2023/04/07 07:19:23;;;;;;;7.28;3.40;;;6.50;99.90;;;;;;5085097;28;20036;-60
2023/04/07 07:21:50;;;;;;;8.98;2.55;;;6.50;99.90;;;;;;5086323;28;20043;-63
2023/04/07 07:24:17;;;;;;;9.45;2.83;;;6.60;99.90;;;;;;5085827;28;20090;-61
2023/04/07 07:26:44;;;;;;;10.50;2.65;;;6.70;99.90;;;;;;5084666;28;20044;-61
2023/04/07 07:29:11;;;;;;;9.15;4.53;;;6.70;99.90;;;;;;5086229;28;20062;-61
2023/04/07 07:31:38;;;;;;;7.47;2.42;;;6.80;99.90;;;;;;5084324;28;20036;-62
2023/04/07 07:34:05;;;;;;;8.07;2.70;;;6.80;99.90;;;;;;5086948;28;20130;-61
2023/04/07 07:36:32;;;;;;;9.93;2.80;;;6.90;99.90;;;;;;5086700;28;20048;-60
2023/04/07 07:38:58;;;;;;;13.50;4.00;;;7.00;99.90;;;;;;5085654;28;20533;-60
2023/04/07 07:41:26;;;;;;;5.80;2.22;;;7.00;99.90;;;;;;5085375;28;20072;-61
2023/04/07 07:43:53;;;;;;;10.02;2.55;;;7.00;99.90;;;;;;5085807;28;20044;-61
2023/04/07 07:46:19;;;;;;;18.98;3.50;;;7.10;99.90;;;;;;5084872;28;20044;-61
2023/04/07 07:48:46;;;;;;;8.75;2.47;;;7.10;99.90;;;;;;5084577;28;20056;-61
2023/04/07 07:51:13;;;;;;;9.43;2.45;;;7.20;99.90;;;;;;5086116;28;20529;-61
2023/04/07 07:53:40;;;;;;;18.20;2.80;;;7.30;99.90;;;;;;5086211;28;20395;-61
2023/04/07 07:56:06;;;;;;;9.48;2.97;;;7.40;99.90;;;;;;4733935;27;10000591;-60
2023/04/07 07:58:33;;;;;;;10.25;2.72;;;7.50;99.90;;;;;;5078990;28;20052;-61
2023/04/07 08:01:00;;;;;;;13.55;3.38;;;7.50;99.90;;;;;;5087988;28;20048;-61
2023/04/07 08:03:27;;;;;;;12.60;2.75;;;7.60;99.90;;;;;;5086126;28;20071;-61
2023/04/07 08:05:53;;;;;;;9.77;2.75;;;7.60;99.90;;;;;;5087691;28;20516;-60
2023/04/07 08:08:20;;;;;;;9.75;2.85;;;7.60;99.90;;;;;;5087531;28;20048;-60
2023/04/07 08:10:47;;;;;;;9.40;2.65;;;7.70;99.90;;;;;;5087847;28;20465;-61
2023/04/07 08:13:14;;;;;;;14.75;3.58;;;7.80;99.90;;;;;;5082403;28;20113;-61
2023/04/07 08:15:41;;;;;;;13.35;3.45;;;7.90;99.90;;;;;;5088077;28;20105;-60
2023/04/07 08:18:08;;;;;;;6.53;2.67;;;8.00;99.90;;;;;;5087500;28;20047;-61
2023/04/07 08:20:35;;;;;;;13.85;2.72;;;8.10;99.90;;;;;;5086955;28;20056;-63
2023/04/07 08:23:02;;;;;;;10.95;3.63;;;8.10;99.90;;;;;;5087099;28;20054;-61
2023/04/07 08:25:29;;;;;;;6.28;2.72;;;8.20;99.90;;;;;;5087812;28;20135;-61
2023/04/07 08:27:56;;;;;;;7.63;2.78;;;8.30;99.90;;;;;;5087358;28;20075;-60
2023/04/07 08:30:23;;;;;;;13.60;3.60;;;8.30;99.90;;;;;;5087212;28;20698;-61
2023/04/07 08:32:50;;;;;;;11.05;2.63;;;8.40;99.90;;;;;;5087863;28;20080;-61
2023/04/07 08:35:16;;;;;;;18.58;3.35;;;8.40;99.90;;;;;;5086592;28;20048;-61
2023/04/07 08:37:43;;;;;;;12.10;3.00;;;8.50;99.90;;;;;;5085773;28;20040;-60
2023/04/07 08:40:10;;;;;;;18.85;3.55;;;8.60;99.90;;;;;;5085667;28;20101;-61
2023/04/07 08:42:40;;;;;;;11.57;2.90;;;8.60;99.90;;;;;;5083999;28;20048;-62
2023/04/07 08:45:08;;;;;;;9.68;2.90;;;8.70;99.90;;;;;;5085976;28;20080;-61
2023/04/07 08:47:36;;;;;;;19.98;4.25;;;8.80;99.90;;;;;;5068652;28;20415;-60
2023/04/07 08:50:05;;;;;;;13.57;2.83;;;8.90;99.90;;;;;;5087189;28;20113;-60
2023/04/07 08:52:35;;;;;;;13.77;3.45;;;8.90;99.90;;;;;;5086599;28;20079;-61
2023/04/07 08:55:02;;;;;;;13.68;3.38;;;9.10;99.90;;;;;;5086490;28;20442;-58
2023/04/07 08:57:32;;;;;;;13.77;2.85;;;9.30;99.90;;;;;;5085280;28;20091;-60
2023/04/07 09:00:04;;;;;;;16.33;3.03;;;9.30;99.90;;;;;;5084736;28;20515;-59
2023/04/07 09:02:36;;;;;;;8.25;2.38;;;9.40;99.90;;;;;;5086184;28;20285;-59
2023/04/07 09:05:04;;;;;;;6.32;2.42;;;9.40;99.90;;;;;;5084729;28;20052;-59
2023/04/07 09:07:32;;;;;;;14.38;2.85;;;9.50;99.90;;;;;;5084450;28;20186;-57
2023/04/07 09:10:00;;;;;;;12.18;2.60;;;9.60;99.90;;;;;;5083840;28;20490;-60
2023/04/07 09:12:27;;;;;;;5.65;2.17;;;9.70;99.90;;;;;;5085648;28;20044;-59
2023/04/07 09:14:55;;;;;;;8.68;2.13;;;9.70;99.90;;;;;;5085170;28;20066;-59
2023/04/07 09:17:21;;;;;;;10.48;3.65;;;9.80;99.90;;;;;;5086619;28;20056;-60
2023/04/07 09:19:48;;;;;;;7.60;3.03;;;9.80;99.90;;;;;;5087174;28;20495;-60
2023/04/07 09:22:44;;;;;;;7.82;2.38;;;9.80;99.90;;;;;;5084697;28;20068;-60
2023/04/07 09:25:18;;;;;;;7.40;2.20;;;9.90;99.90;;;;;;5082490;28;20054;-60
2023/04/07 09:27:57;;;;;;;14.50;2.83;;;10.00;99.90;;;;;;5084496;28;20036;-60
2023/04/07 09:30:24;;;;;;;9.32;2.47;;;10.30;99.90;;;;;;5086233;28;20101;-60
2023/04/07 09:32:51;;;;;;;7.22;2.78;;;10.60;99.90;;;;;;5085643;28;20130;-60
2023/04/07 09:35:18;;;;;;;8.60;2.53;;;11.00;99.90;;;;;;5084457;28;20044;-61
2023/04/07 09:37:59;;;;;;;10.27;2.60;;;11.20;99.90;;;;;;5082753;28;20063;-60
2023/04/07 09:40:26;;;;;;;14.80;3.58;;;11.30;99.90;;;;;;5084871;28;20048;-61
2023/04/07 09:42:53;;;;;;;10.20;2.55;;;11.50;99.90;;;;;;5084892;28;20044;-60
2023/04/07 09:45:34;;;;;;;11.10;2.42;;;11.70;99.90;;;;;;5085844;28;20469;-58
2023/04/07 09:48:07;;;;;;;8.02;2.08;;;12.00;99.90;;;;;;5082294;28;20064;-61
2023/04/07 09:50:44;;;;;;;7.25;2.55;;;12.00;99.90;;;;;;5087249;28;20859;-62
2023/04/07 09:53:11;;;;;;;11.50;2.60;;;12.20;99.90;;;;;;5087903;28;20048;-59
2023/04/07 09:55:39;;;;;;;7.68;2.97;;;12.30;99.90;;;;;;5088590;28;20050;-60
2023/04/07 09:58:06;;;;;;;6.55;2.25;;;12.60;99.90;;;;;;5088250;28;20048;-60
2023/04/07 10:00:33;;;;;;;9.25;2.38;;;12.90;99.90;;;;;;5086211;28;20418;-60
2023/04/07 10:03:00;;;;;;;8.90;2.67;;;13.20;99.90;;;;;;5086800;28;20059;-60
2023/04/07 10:05:27;;;;;;;12.45;3.08;;;13.50;99.90;;;;;;5086697;28;20052;-60
2023/04/07 10:07:54;;;;;;;6.82;2.45;;;13.50;99.90;;;;;;5085408;28;20094;-60
2023/04/07 10:10:21;;;;;;;7.28;2.38;;;13.50;99.90;;;;;;5069530;28;20463;-61
2023/04/07 10:12:48;;;;;;;9.75;3.65;;;13.10;99.90;;;;;;5086695;28;20127;-59
2023/04/07 10:15:15;;;;;;;9.60;2.60;;;12.80;99.90;;;;;;5086337;28;20040;-59
2023/04/07 10:17:45;;;;;;;16.23;2.55;;;12.40;99.90;;;;;;5087436;28;20056;-59
2023/04/07 10:20:12;;;;;;;7.75;2.70;;;12.40;99.90;;;;;;5089054;28;20107;-59
2023/04/07 10:22:40;;;;;;;16.05;4.35;;;12.40;99.90;;;;;;5087117;28;20134;-60
2023/04/07 10:25:11;;;;;;;15.77;2.15;;;12.40;99.90;;;;;;5087742;28;20139;-60
2023/04/07 10:27:48;;;;;;;13.80;1.95;;;12.30;99.90;;;;;;5086842;28;20044;-60
2023/04/07 10:30:34;;;;;;;9.38;1.92;;;12.30;99.90;;;;;;5087711;28;20048;-59
2023/04/07 10:33:01;;;;;;;7.90;2.35;;;12.20;99.90;;;;;;5084781;28;20541;-60
2023/04/07 10:35:48;;;;;;;10.00;1.95;;;12.20;99.90;;;;;;5088712;28;20586;-60
2023/04/07 10:38:16;;;;;;;3.90;1.33;;;12.20;99.90;;;;;;5086105;28;20043;-60
2023/04/07 10:40:43;;;;;;;6.75;1.52;;;11.90;99.90;;;;;;5088356;28;20499;-59
2023/04/07 10:43:10;;;;;;;5.65;1.88;;;11.80;99.90;;;;;;5086946;28;20047;-59
2023/04/07 10:45:52;;;;;;;8.15;1.73;;;11.90;99.90;;;;;;5088640;28;20048;-59
2023/04/07 10:48:19;;;;;;;9.00;3.83;;;11.90;99.90;;;;;;5087306;28;20048;-59
2023/04/07 10:51:07;;;;;;;6.65;1.40;;;12.00;99.90;;;;;;5088567;28;20052;-58
2023/04/07 10:53:35;;;;;;;5.20;2.03;;;12.10;99.90;;;;;;5083278;28;20086;-59
2023/04/07 10:56:02;;;;;;;2.45;0.90;;;12.20;99.90;;;;;;5088514;28;20524;-60
2023/04/07 10:58:30;;;;;;;3.20;1.20;;;12.20;99.90;;;;;;5088276;28;20037;-60
2023/04/07 11:01:00;;;;;;;5.43;1.40;;;12.30;99.90;;;;;;5088793;28;20044;-60
2023/04/07 11:03:28;;;;;;;4.78;1.00;;;12.30;99.90;;;;;;5088166;28;20042;-58
2023/04/07 11:06:04;;;;;;;4.63;0.82;;;12.40;99.90;;;;;;5089187;28;20048;-60
2023/04/07 11:08:35;;;;;;;4.13;0.88;;;12.40;99.90;;;;;;5088362;28;20131;-60
2023/04/07 11:11:07;;;;;;;5.35;0.82;;;12.40;99.90;;;;;;5088243;28;20135;-59
2023/04/07 11:13:47;;;;;;;3.17;0.88;;;12.30;99.90;;;;;;5087094;28;20040;-60
2023/04/07 11:16:16;;;;;;;2.00;0.75;;;12.40;99.90;;;;;;5086777;28;20048;-59
2023/04/07 11:18:43;;;;;;;8.57;1.50;;;12.40;99.90;;;;;;5086611;28;20098;-59
2023/04/07 11:21:10;;;;;;;4.43;1.00;;;12.50;99.90;;;;;;5088699;28;20101;-59
2023/04/07 11:23:42;;;;;;;4.78;1.02;;;12.60;99.90;;;;;;5087822;28;20048;-59
2023/04/07 11:26:10;;;;;;;3.70;0.90;;;12.60;99.90;;;;;;5086953;28;20040;-60
2023/04/07 11:28:51;;;;;;;2.53;0.80;;;12.70;99.90;;;;;;5087861;28;20047;-60
2023/04/07 11:31:23;;;;;;;3.67;1.00;;;12.70;99.90;;;;;;5087303;28;20075;-58
2023/04/07 11:33:54;;;;;;;6.68;1.33;;;12.90;99.90;;;;;;5089712;28;20063;-58
2023/04/07 11:36:31;;;;;;;1.35;0.60;;;13.00;99.90;;;;;;5091653;28;20060;-59
2023/04/07 11:38:58;;;;;;;10.48;1.52;;;13.00;99.90;;;;;;5091790;28;20119;-59
2023/04/07 11:41:26;;;;;;;4.53;0.80;;;13.00;99.90;;;;;;5091116;28;20044;-59
2023/04/07 11:44:25;;;;;;;10.60;1.25;;;13.10;99.90;;;;;;5091056;28;20432;-60
2023/04/07 11:46:55;;;;;;;3.83;1.33;;;13.10;99.90;;;;;;5082223;28;20048;-60
2023/04/07 11:49:22;;;;;;;5.38;0.80;;;13.10;99.90;;;;;;4737677;28;10000479;-60
2023/04/07 11:51:59;;;;;;;2.25;0.93;;;13.20;99.90;;;;;;5090866;28;21109;-61
2023/04/07 11:54:27;;;;;;;2.60;0.70;;;13.20;99.90;;;;;;5090974;28;20222;-60
2023/04/07 11:56:54;;;;;;;2.92;0.98;;;13.40;99.90;;;;;;5090351;28;20131;-60
2023/04/07 11:59:24;;;;;;;3.47;0.93;;;13.50;99.90;;;;;;5090181;28;20097;-60
2023/04/07 12:01:52;;;;;;;7.60;1.20;;;13.60;99.90;;;;;;5091599;28;20047;-58
2023/04/07 12:04:23;;;;;;;3.88;0.82;;;13.70;99.90;;;;;;5083491;28;20052;-63
2023/04/07 12:06:50;;;;;;;2.15;0.90;;;13.70;99.90;;;;;;5091178;28;20055;-58
2023/04/07 12:09:26;;;;;;;5.82;1.13;;;13.60;99.90;;;;;;5091463;28;20127;-60
2023/04/07 12:11:53;;;;;;;5.72;1.10;;;13.50;99.90;;;;;;5087232;28;20083;-60
2023/04/07 12:14:20;;;;;;;4.10;0.93;;;13.50;99.90;;;;;;5091461;28;20040;-62
2023/04/07 12:16:47;;;;;;;1.83;0.82;;;13.50;99.90;;;;;;5090566;28;20306;-59
2023/04/07 12:19:14;;;;;;;2.22;0.82;;;13.50;99.90;;;;;;5090909;28;20047;-61
2023/04/07 12:21:42;;;;;;;3.65;1.92;;;13.50;99.90;;;;;;5091055;28;20075;-59
2023/04/07 12:24:09;;;;;;;1.60;0.85;;;13.40;99.90;;;;;;5089748;28;20044;-59
2023/04/07 12:26:36;;;;;;;3.28;1.23;;;13.40;99.90;;;;;;5090501;28;20130;-60
2023/04/07 12:29:04;;;;;;;3.92;1.15;;;13.50;99.90;;;;;;5091132;28;20055;-60
2023/04/07 12:31:31;;;;;;;7.97;1.13;;;13.50;99.90;;;;;;5088300;28;20086;-61
2023/04/07 12:34:00;;;;;;;4.95;0.70;;;13.70;99.90;;;;;;5090351;28;20051;-60
2023/04/07 12:36:28;;;;;;;2.85;0.88;;;13.80;99.90;;;;;;5090455;28;20044;-59
2023/04/07 12:38:55;;;;;;;2.35;0.95;;;13.90;99.90;;;;;;5090263;28;20074;-59
2023/04/07 12:41:22;;;;;;;3.05;1.70;;;14.00;99.90;;;;;;5086823;28;20543;-59
2023/04/07 12:43:49;;;;;;;6.60;0.93;;;14.00;99.90;;;;;;5083763;28;20371;-60
2023/04/07 12:46:17;;;;;;;1.30;0.40;;;14.00;99.30;;;;;;5087131;28;20048;-58
2023/04/07 12:48:46;;;;;;;9.48;3.47;;;14.10;99.90;;;;;;5087612;28;20102;-60
2023/04/07 12:51:13;;;;;;;4.38;1.00;;;14.10;99.20;;;;;;5087452;28;20043;-61
2023/04/07 12:53:40;;;;;;;2.83;1.95;;;14.10;91.90;;;;;;5086794;28;20503;-60
2023/04/07 12:56:07;;;;;;;3.15;0.90;;;14.10;99.30;;;;;;5087012;28;20048;-58